Terminal Aerodrome Forecast
Issued by NWS

Home | Current Version | Previous Version | Text Only | Print | Product List | Glossary On
Versions: 1 2 3 4 5 6 7 8 9 10 11 12 13 14 15 16
000
FTUS46 KPDT 030500
TAFRDM
TAF
KRDM 030520Z 0306/0406 33005KT P6SM BKN070
     FM031200 34004KT P6SM SCT070
     FM031800 35007KT P6SM SKC
     FM040400 VRB03KT P6SM SKC=

USA.gov is the U.S. government's official web portal to all federal, state and local government web resources and services.